createdAt,value
2023-06-17T00:00:38.000Z,1010.3
2023-06-17T00:01:54.439Z,1010.3
2023-06-17T00:03:10.633Z,1010.3
2023-06-17T00:04:26.809Z,1010.3
2023-06-17T00:05:43.000Z,1010.3
2023-06-17T00:06:59.182Z,1010.3
2023-06-17T00:08:15.375Z,1010.3
2023-06-17T00:09:31.574Z,1010.3
2023-06-17T00:12:03.953Z,1010.3
2023-06-17T00:13:20.129Z,1010.2
2023-06-17T00:14:36.044Z,1010.3
2023-06-17T00:15:51.533Z,1010.3
2023-06-17T00:17:07.717Z,1010.2
2023-06-17T00:18:23.908Z,1010.2
2023-06-17T00:19:40.093Z,1010.3
2023-06-17T00:20:56.285Z,1010.3
2023-06-17T00:22:13.184Z,1010.2
2023-06-17T00:23:28.662Z,1010.2
2023-06-17T00:24:44.845Z,1010.3
2023-06-17T00:26:01.026Z,1010.3
2023-06-17T00:27:17.224Z,1010.3
2023-06-17T00:28:33.411Z,1010.2
2023-06-17T00:29:50.318Z,1010.2
2023-06-17T00:31:04.810Z,1010.2
2023-06-17T00:32:20.987Z,1010.2
2023-06-17T00:33:37.183Z,1010.2
2023-06-17T00:34:53.387Z,1010.1
2023-06-17T00:36:09.552Z,1010.2
2023-06-17T00:37:25.758Z,1010.2
2023-06-17T00:38:41.946Z,1010.2
2023-06-17T00:39:58.123Z,1010.1
2023-06-17T00:41:14.324Z,1010.1
2023-06-17T00:42:30.506Z,1010.1
2023-06-17T00:43:46.696Z,1010.1
2023-06-17T00:45:03.595Z,1010.1
2023-06-17T00:46:19.078Z,1010.2
2023-06-17T00:47:34.268Z,1010.1
2023-06-17T00:48:50.465Z,1010.1
2023-06-17T00:50:06.658Z,1010.1
2023-06-17T00:51:22.843Z,1010.1
2023-06-17T00:52:39.042Z,1010
2023-06-17T00:53:55.224Z,1010.1
2023-06-17T00:55:11.404Z,1010.1
2023-06-17T00:56:27.602Z,1010.1
2023-06-17T00:57:43.786Z,1010.1
2023-06-17T00:58:59.974Z,1010
2023-06-17T01:00:16.154Z,1010
2023-06-17T01:01:32.359Z,1010
2023-06-17T01:02:48.533Z,1010.1
2023-06-17T01:04:03.747Z,1010
2023-06-17T01:05:19.946Z,1010
2023-06-17T01:06:36.129Z,1009.9
2023-06-17T01:07:53.030Z,1010
2023-06-17T01:09:08.493Z,1010
2023-06-17T01:10:24.693Z,1009.9
2023-06-17T01:11:40.884Z,1010
2023-06-17T01:12:57.060Z,1010
2023-06-17T01:14:13.257Z,1010
2023-06-17T01:15:30.158Z,1010
2023-06-17T01:16:45.637Z,1010
2023-06-17T01:18:01.816Z,1009.9
2023-06-17T01:19:18.007Z,1010
2023-06-17T01:20:33.222Z,1010
2023-06-17T01:21:49.394Z,1009.9
2023-06-17T01:23:06.310Z,1010
2023-06-17T01:24:21.772Z,1010
2023-06-17T01:25:37.962Z,1010
2023-06-17T01:26:54.167Z,1010
2023-06-17T01:28:10.355Z,1010.1
2023-06-17T01:29:26.544Z,1010
2023-06-17T01:30:43.440Z,1010.1
2023-06-17T01:31:58.922Z,1010.1
2023-06-17T01:33:15.105Z,1010
2023-06-17T01:34:31.286Z,1010.1
2023-06-17T01:35:47.489Z,1010.1
2023-06-17T01:37:02.679Z,1010
2023-06-17T01:38:18.880Z,1010.1
2023-06-17T01:39:35.070Z,1010
2023-06-17T01:40:51.254Z,1010.1
2023-06-17T01:42:07.437Z,1010
2023-06-17T01:43:23.636Z,1010.1
2023-06-17T01:44:39.825Z,1010
2023-06-17T01:45:56.733Z,1010
2023-06-17T01:47:12.186Z,1010
2023-06-17T01:48:28.391Z,1010
2023-06-17T01:49:45.298Z,1010
2023-06-17T01:51:00.765Z,1010
2023-06-17T01:52:16.940Z,1010
2023-06-17T01:53:32.146Z,1010
2023-06-17T01:54:48.339Z,1010
2023-06-17T01:56:04.522Z,1010
2023-06-17T01:57:20.729Z,1010
2023-06-17T01:58:36.915Z,1009.9
2023-06-17T01:59:53.096Z,1010
2023-06-17T02:01:10.017Z,1010
2023-06-17T02:02:25.472Z,1010
2023-06-17T02:03:41.669Z,1010
2023-06-17T02:04:57.860Z,1010
2023-06-17T02:06:14.030Z,1010
2023-06-17T02:07:30.222Z,1010
2023-06-17T02:08:47.157Z,1010
2023-06-17T02:10:01.617Z,1009.9
2023-06-17T02:11:17.814Z,1009.9
2023-06-17T02:12:33.993Z,1010
2023-06-17T02:13:50.180Z,1010
2023-06-17T02:15:06.382Z,1009.9
2023-06-17T02:16:23.308Z,1009.9
2023-06-17T02:17:38.763Z,1009.9
2023-06-17T02:18:54.937Z,1009.9
2023-06-17T02:20:11.139Z,1009.9
2023-06-17T02:21:27.328Z,1009.9
2023-06-17T02:22:43.517Z,1009.9
2023-06-17T02:24:00.438Z,1010
2023-06-17T02:25:15.886Z,1009.9
2023-06-17T02:27:47.273Z,1009.9
2023-06-17T02:29:03.469Z,1009.8
2023-06-17T02:30:19.655Z,1009.9
2023-06-17T02:31:36.591Z,1009.9
2023-06-17T02:32:52.045Z,1009.9
2023-06-17T02:34:08.233Z,1009.9
2023-06-17T02:35:24.402Z,1009.9
2023-06-17T02:36:40.610Z,1009.9
2023-06-17T02:37:56.786Z,1009.9
2023-06-17T02:39:13.715Z,1009.9
2023-06-17T02:40:29.169Z,1009.9
2023-06-17T02:41:45.355Z,1009.9
2023-06-17T02:43:00.555Z,1009.8
2023-06-17T02:44:16.743Z,1009.9
2023-06-17T02:45:32.930Z,1009.9
2023-06-17T02:46:49.134Z,1009.7
2023-06-17T02:48:05.320Z,1009.7
2023-06-17T02:49:21.512Z,1009.7
2023-06-17T02:50:37.698Z,1009.8
2023-06-17T02:51:53.878Z,1009.8
2023-06-17T02:53:10.074Z,1009.8
2023-06-17T02:54:26.993Z,1009.9
2023-06-17T02:55:42.455Z,1009.8
2023-06-17T02:56:58.644Z,1009.8
2023-06-17T02:58:14.818Z,1009.8
2023-06-17T02:59:30.030Z,1009.9
2023-06-17T03:00:46.223Z,1009.8
2023-06-17T03:02:02.399Z,1009.8
2023-06-17T03:03:18.592Z,1009.8
2023-06-17T03:04:34.778Z,1009.8
2023-06-17T03:05:50.973Z,1009.8
2023-06-17T03:07:07.164Z,1009.8
2023-06-17T03:08:23.343Z,1009.8
2023-06-17T03:09:40.287Z,1009.8
2023-06-17T03:10:55.727Z,1009.8
2023-06-17T03:12:11.913Z,1009.8
2023-06-17T03:13:28.112Z,1009.7
2023-06-17T03:14:44.286Z,1009.7
2023-06-17T03:15:59.498Z,1009.7
2023-06-17T03:17:15.690Z,1009.7
2023-06-17T03:18:31.868Z,1009.8
2023-06-17T03:19:48.065Z,1009.8
2023-06-17T03:21:04.256Z,1009.7
2023-06-17T03:22:20.000Z,1009.8
2023-06-17T03:23:36.636Z,1009.8
2023-06-17T03:24:52.822Z,1009.8
2023-06-17T03:26:09.014Z,1009.8
2023-06-17T03:27:25.194Z,1009.8
2023-06-17T03:28:41.378Z,1009.8
2023-06-17T03:29:57.572Z,1009.8
2023-06-17T03:31:13.752Z,1009.8
2023-06-17T03:32:28.961Z,1009.8
2023-06-17T03:33:45.159Z,1009.8
2023-06-17T03:35:01.340Z,1009.8
2023-06-17T03:36:17.544Z,1009.7
2023-06-17T03:37:33.716Z,1009.8
2023-06-17T03:38:49.917Z,1009.8
2023-06-17T03:40:06.856Z,1009.8
2023-06-17T03:41:22.294Z,1009.8
2023-06-17T03:42:38.474Z,1009.8
2023-06-17T03:43:55.419Z,1009.8
2023-06-17T03:45:10.861Z,1009.9
2023-06-17T03:46:27.039Z,1009.8
2023-06-17T03:47:43.234Z,1009.9
2023-06-17T03:48:58.428Z,1009.8
2023-06-17T03:50:15.383Z,1009.8
2023-06-17T03:51:30.808Z,1009.9
2023-06-17T03:52:46.998Z,1009.9
2023-06-17T03:54:03.187Z,1009.8
2023-06-17T03:55:20.140Z,1009.8
2023-06-17T03:56:35.575Z,1009.9
2023-06-17T03:57:51.752Z,1009.9
2023-06-17T03:59:07.949Z,1009.9
2023-06-17T04:00:24.142Z,1009.9
2023-06-17T04:01:40.314Z,1009.9
2023-06-17T04:02:56.516Z,1009.9
2023-06-17T04:04:12.697Z,1009.9
2023-06-17T04:05:27.904Z,1009.9
2023-06-17T04:06:44.101Z,1010
2023-06-17T04:08:00.289Z,1009.9
2023-06-17T04:09:16.475Z,1009.9
2023-06-17T04:10:32.661Z,1010
2023-06-17T04:11:48.854Z,1010
2023-06-17T04:13:04.053Z,1010
2023-06-17T04:14:20.252Z,1010
2023-06-17T04:15:36.436Z,1010
2023-06-17T04:16:52.634Z,1010
2023-06-17T04:18:09.582Z,1010
2023-06-17T04:19:25.013Z,1010
2023-06-17T04:20:41.960Z,1010
2023-06-17T04:21:57.376Z,1010
2023-06-17T04:23:13.570Z,1010
2023-06-17T04:24:29.752Z,1009.9
2023-06-17T04:25:46.704Z,1009.9
2023-06-17T04:27:02.140Z,1009.9
2023-06-17T04:28:18.330Z,1009.9
2023-06-17T04:29:33.536Z,1010
2023-06-17T04:30:49.710Z,1009.9
2023-06-17T04:32:06.666Z,1009.9
2023-06-17T04:33:22.864Z,1009.9
2023-06-17T04:34:38.285Z,1009.9
2023-06-17T04:35:54.475Z,1009.9
2023-06-17T04:37:10.670Z,1009.9
2023-06-17T04:38:26.851Z,1009.9
2023-06-17T04:39:43.046Z,1010
2023-06-17T04:40:59.236Z,1009.8
2023-06-17T04:42:15.409Z,1009.9
2023-06-17T04:43:31.613Z,1009.9
2023-06-17T04:44:47.785Z,1009.9
2023-06-17T04:46:02.990Z,1010
2023-06-17T04:47:19.960Z,1010.1
2023-06-17T04:48:36.148Z,1009.9
2023-06-17T04:49:51.560Z,1010
2023-06-17T04:51:07.760Z,1010
2023-06-17T04:52:23.944Z,1010
2023-06-17T04:53:40.138Z,1010
2023-06-17T04:54:56.325Z,1010
2023-06-17T04:56:13.278Z,1010
2023-06-17T04:57:28.687Z,1010
2023-06-17T04:58:45.655Z,1010.1
2023-06-17T05:00:01.843Z,1010
2023-06-17T05:01:17.261Z,1010
2023-06-17T05:02:32.458Z,1009.9
2023-06-17T05:03:48.669Z,1009.9
2023-06-17T05:05:04.839Z,1010
2023-06-17T05:06:21.047Z,1010
2023-06-17T05:07:37.221Z,1010
2023-06-17T05:08:53.413Z,1010
2023-06-17T05:10:09.602Z,1010
2023-06-17T05:11:25.000Z,1009.9
2023-06-17T05:12:42.745Z,1010
2023-06-17T05:13:58.929Z,1010
2023-06-17T05:15:14.356Z,1010
2023-06-17T05:16:30.536Z,1010
2023-06-17T05:17:46.730Z,1010
2023-06-17T05:19:02.716Z,1010
2023-06-17T05:20:18.135Z,1010
2023-06-17T05:21:34.321Z,1010
2023-06-17T05:22:50.512Z,1010
2023-06-17T05:24:06.702Z,1010
2023-06-17T05:25:22.885Z,1010
2023-06-17T05:26:39.845Z,1010
2023-06-17T05:27:55.262Z,1010
2023-06-17T05:29:12.213Z,1010
2023-06-17T05:30:27.647Z,1010
2023-06-17T05:31:43.836Z,1009.9
2023-06-17T05:33:00.012Z,1010
2023-06-17T05:34:16.968Z,1010
2023-06-17T05:35:31.411Z,1010
2023-06-17T05:36:47.590Z,1010
2023-06-17T05:38:03.784Z,1010
2023-06-17T05:39:19.980Z,1010
2023-06-17T05:40:36.153Z,1010
2023-06-17T05:41:52.347Z,1010
2023-06-17T05:43:08.537Z,1010
2023-06-17T05:44:24.720Z,1010
2023-06-17T05:45:40.913Z,1010.1
2023-06-17T05:46:57.114Z,1010
2023-06-17T05:48:13.298Z,1010
2023-06-17T05:49:29.480Z,1010
2023-06-17T05:50:45.674Z,1010
2023-06-17T05:52:00.874Z,1010.1
2023-06-17T05:53:17.075Z,1010.1
2023-06-17T05:54:33.253Z,1010.1
2023-06-17T05:55:49.453Z,1010.1
2023-06-17T05:57:06.400Z,1010.1
2023-06-17T05:58:21.825Z,1010.1
2023-06-17T05:59:38.006Z,1010.1
2023-06-17T06:00:54.200Z,1010.1
2023-06-17T06:02:10.388Z,1010.1
2023-06-17T06:03:27.347Z,1010.1
2023-06-17T06:04:43.540Z,1010.2
2023-06-17T06:05:58.955Z,1010.2
2023-06-17T06:07:15.131Z,1010.2
2023-06-17T06:08:30.348Z,1010.2
2023-06-17T06:09:46.540Z,1010.2
2023-06-17T06:11:02.727Z,1010.2
2023-06-17T06:12:18.910Z,1010.2
2023-06-17T06:13:35.867Z,1010.2
2023-06-17T06:14:51.276Z,1010.2
2023-06-17T06:16:08.259Z,1010.2
2023-06-17T06:17:23.665Z,1010.3
2023-06-17T06:18:39.847Z,1010.2
2023-06-17T06:19:56.037Z,1010.2
2023-06-17T06:21:12.217Z,1010.2
2023-06-17T06:22:28.396Z,1010.2
2023-06-17T06:23:44.602Z,1010.2
2023-06-17T06:24:59.792Z,1010.3
2023-06-17T06:26:16.759Z,1010.2
2023-06-17T06:27:32.952Z,1010.2
2023-06-17T06:28:48.365Z,1010.2
2023-06-17T06:30:04.548Z,1010.3
2023-06-17T06:31:20.722Z,1010.3
2023-06-17T06:32:36.911Z,1010.2
2023-06-17T06:33:53.111Z,1010.3
2023-06-17T06:35:09.286Z,1010.3
2023-06-17T06:36:25.473Z,1010.3
2023-06-17T06:37:42.448Z,1010.3
2023-06-17T06:38:57.854Z,1010.3
2023-06-17T06:40:14.048Z,1010.3
2023-06-17T06:41:29.239Z,1010.3
2023-06-17T06:42:46.222Z,1010.3
2023-06-17T06:44:01.625Z,1010.3
2023-06-17T06:45:17.801Z,1010.3
2023-06-17T06:46:33.999Z,1010.3
2023-06-17T06:47:50.168Z,1010.3
2023-06-17T06:49:06.354Z,1010.3
2023-06-17T06:50:23.348Z,1010.3
2023-06-17T06:51:38.738Z,1010.3
2023-06-17T06:52:54.923Z,1010.4
2023-06-17T06:54:11.104Z,1010.4
2023-06-17T06:55:27.304Z,1010.3
2023-06-17T06:56:43.488Z,1010.4
2023-06-17T06:57:59.481Z,1010.4
2023-06-17T06:59:14.870Z,1010.4
2023-06-17T07:00:31.065Z,1010.4
2023-06-17T07:01:47.246Z,1010.3
2023-06-17T07:03:03.433Z,1010.4
2023-06-17T07:04:19.624Z,1010.3
2023-06-17T07:05:36.599Z,1010.4
2023-06-17T07:06:52.797Z,1010.4
2023-06-17T07:08:08.969Z,1010.4
2023-06-17T07:09:24.376Z,1010.4
2023-06-17T07:10:40.552Z,1010.4
2023-06-17T07:11:56.749Z,1010.4
2023-06-17T07:13:13.720Z,1010.4
2023-06-17T07:14:28.147Z,1010.3
2023-06-17T07:15:44.324Z,1010.4
2023-06-17T07:17:01.299Z,1010.4
2023-06-17T07:18:16.694Z,1010.4
2023-06-17T07:19:33.683Z,1010.3
2023-06-17T07:20:49.855Z,1010.4
2023-06-17T07:22:05.258Z,1010.4
2023-06-17T07:23:22.238Z,1010.4
2023-06-17T07:24:37.625Z,1010.4
2023-06-17T07:25:53.830Z,1010.4
2023-06-17T07:27:10.010Z,1010.3
2023-06-17T07:28:26.989Z,1010.4
2023-06-17T07:29:42.376Z,1010.4
2023-06-17T07:30:58.382Z,1010.4
2023-06-17T07:32:14.561Z,1010.3
2023-06-17T07:33:29.950Z,1010.3
2023-06-17T07:34:46.151Z,1010.4
2023-06-17T07:36:03.130Z,1010.4
2023-06-17T07:37:18.514Z,1010.4
2023-06-17T07:38:35.511Z,1010.4
2023-06-17T07:39:50.901Z,1010.3
2023-06-17T07:41:07.088Z,1010.4
2023-06-17T07:42:24.070Z,1010.4
2023-06-17T07:43:40.246Z,1010.4
2023-06-17T07:44:56.441Z,1010.4
2023-06-17T07:46:11.831Z,1010.4
2023-06-17T07:47:27.028Z,1010.4
2023-06-17T07:48:43.221Z,1010.4
2023-06-17T07:49:59.403Z,1010.4
2023-06-17T07:51:16.392Z,1010.5
2023-06-17T07:52:31.774Z,1010.4
2023-06-17T07:53:47.956Z,1010.5
2023-06-17T07:55:04.955Z,1010.5
2023-06-17T07:56:20.339Z,1010.5
2023-06-17T07:57:37.324Z,1010.5
2023-06-17T07:58:53.513Z,1010.4
2023-06-17T08:00:08.889Z,1010.5
2023-06-17T08:01:25.096Z,1010.5
2023-06-17T08:02:41.270Z,1010.5
2023-06-17T08:03:56.482Z,1010.5
2023-06-17T08:05:12.661Z,1010.5
2023-06-17T08:06:29.646Z,1010.4
2023-06-17T08:07:45.034Z,1010.5
2023-06-17T08:09:01.229Z,1010.4
2023-06-17T08:10:18.213Z,1010.4
2023-06-17T08:11:33.594Z,1010.5
2023-06-17T08:12:49.791Z,1010.4
2023-06-17T08:14:06.768Z,1010.5
2023-06-17T08:15:22.156Z,1010.4
2023-06-17T08:16:38.341Z,1010.4
2023-06-17T08:17:54.535Z,1010.4
2023-06-17T08:19:10.728Z,1010.4
2023-06-17T08:20:25.932Z,1010.4
2023-06-17T08:21:42.916Z,1010.4
2023-06-17T08:22:58.289Z,1010.4
2023-06-17T08:24:14.482Z,1010.4
2023-06-17T08:25:30.665Z,1010.4
2023-06-17T08:26:46.852Z,1010.4
2023-06-17T08:28:02.060Z,1010.4
2023-06-17T08:29:18.244Z,1010.4
2023-06-17T08:30:34.436Z,1010.4
2023-06-17T08:31:50.624Z,1010.5
2023-06-17T08:33:06.804Z,1010.5
2023-06-17T08:34:23.000Z,1010.5
2023-06-17T08:35:39.179Z,1010.5
2023-06-17T08:36:56.185Z,1010.5
2023-06-17T08:38:11.571Z,1010.5
2023-06-17T08:39:27.753Z,1010.5
2023-06-17T08:40:43.937Z,1010.5
2023-06-17T08:42:00.118Z,1010.5
2023-06-17T08:43:16.312Z,1010.5
2023-06-17T08:44:32.320Z,1010.5
2023-06-17T08:45:47.000Z,1010.5
2023-06-17T08:47:03.887Z,1010.5
2023-06-17T08:48:20.070Z,1010.5
2023-06-17T08:49:36.264Z,1010.5
2023-06-17T08:50:52.453Z,1010.6
2023-06-17T08:52:08.631Z,1010.5
2023-06-17T08:53:24.827Z,1010.5
2023-06-17T08:54:41.002Z,1010.5
2023-06-17T08:55:57.194Z,1010.5
2023-06-17T08:57:13.379Z,1010.5
2023-06-17T08:58:29.569Z,1010.5
2023-06-17T08:59:45.767Z,1010.5
2023-06-17T09:01:00.956Z,1010.5
2023-06-17T09:02:17.141Z,1010.6
2023-06-17T09:03:33.342Z,1010.5
2023-06-17T09:04:49.526Z,1010.5
2023-06-17T09:06:05.704Z,1010.5
2023-06-17T09:07:21.904Z,1010.5
2023-06-17T09:08:38.078Z,1010.5
2023-06-17T09:09:54.271Z,1010.5
2023-06-17T09:11:10.455Z,1010.6
2023-06-17T09:12:26.634Z,1010.6
2023-06-17T09:13:42.828Z,1010.5
2023-06-17T09:14:59.018Z,1010.6
2023-06-17T09:16:15.208Z,1010.6
2023-06-17T09:17:31.219Z,1010.6
2023-06-17T09:18:46.598Z,1010.6
2023-06-17T09:20:02.776Z,1010.6
2023-06-17T09:21:18.975Z,1010.6
2023-06-17T09:22:35.971Z,1010.7
2023-06-17T09:23:51.344Z,1010.6
2023-06-17T09:25:07.521Z,1010.6
2023-06-17T09:26:23.716Z,1010.6
2023-06-17T09:27:39.900Z,1010.6
2023-06-17T09:28:56.099Z,1010.6
2023-06-17T09:30:13.086Z,1010.6
2023-06-17T09:31:28.464Z,1010.7
2023-06-17T09:32:44.650Z,1010.6
2023-06-17T09:33:59.859Z,1010.6
2023-06-17T09:35:16.035Z,1010.6
2023-06-17T09:36:32.227Z,1010.6
2023-06-17T09:37:49.227Z,1010.6
2023-06-17T09:39:04.610Z,1010.7
2023-06-17T09:40:20.786Z,1010.6
2023-06-17T09:41:36.970Z,1010.7
2023-06-17T09:42:53.156Z,1010.7
2023-06-17T09:44:09.343Z,1010.6
2023-06-17T09:45:26.356Z,1010.7
2023-06-17T09:46:41.716Z,1010.6
2023-06-17T09:47:57.903Z,1010.6
2023-06-17T09:49:14.096Z,1010.6
2023-06-17T09:50:29.309Z,1010.6
2023-06-17T09:51:45.491Z,1010.6
2023-06-17T09:53:02.496Z,1010.6
2023-06-17T09:54:17.864Z,1010.6
2023-06-17T09:55:34.037Z,1010.6
2023-06-17T09:56:50.240Z,1010.5
2023-06-17T09:58:06.416Z,1010.5
2023-06-17T09:59:22.621Z,1010.6
2023-06-17T10:00:38.805Z,1010.5
2023-06-17T10:01:54.978Z,1010.6
2023-06-17T10:03:11.171Z,1010.5
2023-06-17T10:04:27.361Z,1010.5
2023-06-17T10:05:43.553Z,1010.5
2023-06-17T10:06:58.744Z,1010.5
2023-06-17T10:08:15.756Z,1010.5
2023-06-17T10:09:31.128Z,1010.5
2023-06-17T10:10:47.304Z,1010.5
2023-06-17T10:12:03.493Z,1010.5
2023-06-17T10:13:19.669Z,1010.4
2023-06-17T10:14:35.860Z,1010.4
2023-06-17T10:15:52.050Z,1010.4
2023-06-17T10:17:08.240Z,1010.5
2023-06-17T10:18:24.420Z,1010.6
2023-06-17T10:19:40.606Z,1010.5
2023-06-17T10:20:56.793Z,1010.5
2023-06-17T10:22:12.997Z,1010.5
2023-06-17T10:23:29.021Z,1010.5
2023-06-17T10:24:44.381Z,1010.5
2023-06-17T10:26:00.559Z,1010.4
2023-06-17T10:27:16.762Z,1010.5
2023-06-17T10:28:32.942Z,1010.4
2023-06-17T10:29:49.122Z,1010.5
2023-06-17T10:31:05.303Z,1010.5
2023-06-17T10:32:21.508Z,1010.4
2023-06-17T10:33:37.684Z,1010.4
2023-06-17T10:34:53.874Z,1010.5
2023-06-17T10:36:10.051Z,1010.5
2023-06-17T10:37:26.251Z,1010.4
2023-06-17T10:38:42.428Z,1010.4
2023-06-17T10:39:57.646Z,1010.5
2023-06-17T10:41:13.826Z,1010.5
2023-06-17T10:42:30.006Z,1010.5
2023-06-17T10:43:46.200Z,1010.5
2023-06-17T10:45:02.388Z,1010.5
2023-06-17T10:46:19.400Z,1010.5
2023-06-17T10:47:34.752Z,1010.5
2023-06-17T10:48:50.953Z,1010.5
2023-06-17T10:50:07.122Z,1010.5
2023-06-17T10:51:23.323Z,1010.5
2023-06-17T10:52:39.509Z,1010.5
2023-06-17T10:53:55.684Z,1010.4
2023-06-17T10:55:11.884Z,1010.4
2023-06-17T10:56:27.083Z,1010.4
2023-06-17T10:57:43.266Z,1010.4
2023-06-17T10:58:59.467Z,1010.4
2023-06-17T11:00:15.634Z,1010.4
2023-06-17T11:01:32.660Z,1010.4
2023-06-17T11:02:48.013Z,1010.2
2023-06-17T11:04:04.196Z,1010.2
2023-06-17T11:05:20.398Z,1010.3
2023-06-17T11:06:36.570Z,1010.3
2023-06-17T11:07:52.770Z,1010.3
2023-06-17T11:09:08.959Z,1010.3
2023-06-17T11:10:25.143Z,1010.2
2023-06-17T11:11:41.336Z,1010.2
2023-06-17T11:12:56.528Z,1010.2
2023-06-17T11:14:12.713Z,1010.2
2023-06-17T11:15:28.902Z,1010.1
2023-06-17T11:16:45.095Z,1010.1
2023-06-17T11:18:01.273Z,1010.1
2023-06-17T11:19:17.474Z,1010
2023-06-17T11:20:33.654Z,1010
2023-06-17T11:21:49.836Z,1010
2023-06-17T11:23:06.016Z,1010
2023-06-17T11:24:23.059Z,1010
2023-06-17T11:25:38.391Z,1010.1
2023-06-17T11:26:54.584Z,1010.1
2023-06-17T11:28:10.773Z,1010.1
2023-06-17T11:29:25.968Z,1010.1
2023-06-17T11:30:42.164Z,1010.1
2023-06-17T11:31:58.348Z,1010
2023-06-17T11:33:14.541Z,1009.9
2023-06-17T11:34:30.714Z,1009.9
2023-06-17T11:35:46.912Z,1010
2023-06-17T11:37:03.105Z,1009.9
2023-06-17T11:38:19.283Z,1009.9
2023-06-17T11:39:35.464Z,1009.8
2023-06-17T11:40:51.654Z,1009.8
2023-06-17T11:42:07.844Z,1009.9
2023-06-17T11:43:24.042Z,1009.9
2023-06-17T11:44:40.218Z,1009.9
2023-06-17T11:45:55.431Z,1009.8
2023-06-17T11:47:12.462Z,1009.8
2023-06-17T11:48:27.799Z,1009.8
2023-06-17T11:49:43.978Z,1009.8
2023-06-17T11:51:00.179Z,1009.8
2023-06-17T11:52:16.347Z,1009.8
2023-06-17T11:53:32.542Z,1009.8
2023-06-17T11:54:48.739Z,1009.9
2023-06-17T11:56:05.756Z,1010
2023-06-17T11:57:21.102Z,1010.1
2023-06-17T11:58:37.283Z,1010.1
2023-06-17T11:59:53.489Z,1010.1
2023-06-17T12:01:09.661Z,1010.1
2023-06-17T12:02:25.708Z,1010.2
2023-06-17T12:03:41.058Z,1010.2
2023-06-17T12:04:57.236Z,1010.2
2023-06-17T12:06:13.429Z,1010.2
2023-06-17T12:07:29.619Z,1010.2
2023-06-17T12:08:45.808Z,1010.2
2023-06-17T12:10:01.991Z,1010.2
2023-06-17T12:11:18.172Z,1010.1
2023-06-17T12:12:34.368Z,1010.2
2023-06-17T12:13:50.556Z,1010.2
2023-06-17T12:15:06.728Z,1010.3
2023-06-17T12:16:22.923Z,1010.2
2023-06-17T12:17:39.968Z,1010.3
2023-06-17T12:18:54.309Z,1010.3
2023-06-17T12:20:10.500Z,1010.3
2023-06-17T12:21:26.689Z,1010.4
2023-06-17T12:22:42.880Z,1010.4
2023-06-17T12:23:59.069Z,1010.4
2023-06-17T12:25:15.247Z,1010.4
2023-06-17T12:26:31.428Z,1010.5
2023-06-17T12:27:47.619Z,1010.4
2023-06-17T12:29:03.806Z,1010.5
2023-06-17T12:30:19.993Z,1010.5
2023-06-17T12:31:36.189Z,1010.5
2023-06-17T12:32:52.369Z,1010.5
2023-06-17T12:34:08.550Z,1010.5
2023-06-17T12:35:23.765Z,1010.6
2023-06-17T12:36:39.958Z,1010.5
2023-06-17T12:37:56.141Z,1010.5
2023-06-17T12:39:12.331Z,1010.5
2023-06-17T12:40:28.509Z,1010.5
2023-06-17T12:41:44.698Z,1010.4
2023-06-17T12:42:59.913Z,1010.4
2023-06-17T12:44:16.102Z,1010.3
2023-06-17T12:45:32.287Z,1010.3
2023-06-17T12:46:48.473Z,1010.3
2023-06-17T12:48:04.649Z,1010.2
2023-06-17T12:49:20.850Z,1010.2
2023-06-17T12:50:37.022Z,1010.3
2023-06-17T12:51:53.215Z,1010.3
2023-06-17T12:53:09.402Z,1010.2
2023-06-17T12:54:25.589Z,1010.3
2023-06-17T12:55:41.779Z,1010.4
2023-06-17T12:56:57.972Z,1010.3
2023-06-17T12:58:14.148Z,1010.4
2023-06-17T12:59:29.357Z,1010.3
2023-06-17T13:00:45.539Z,1010.3
2023-06-17T13:02:01.720Z,1010.3
2023-06-17T13:03:17.906Z,1010.3
2023-06-17T13:04:34.102Z,1010.3
2023-06-17T13:05:50.283Z,1010.2
2023-06-17T13:07:06.468Z,1010.3
2023-06-17T13:08:22.669Z,1010.3
2023-06-17T13:09:38.846Z,1010.3
2023-06-17T13:10:55.033Z,1010.3
2023-06-17T13:12:11.216Z,1010.2
2023-06-17T13:13:27.402Z,1010.2
2023-06-17T13:14:43.595Z,1010.2
2023-06-17T13:15:58.794Z,1010.1
2023-06-17T13:17:14.994Z,1010.1
2023-06-17T13:18:31.181Z,1010.1
2023-06-17T13:19:47.357Z,1010.2
2023-06-17T13:21:03.547Z,1010.2
2023-06-17T13:22:19.737Z,1010.1
2023-06-17T13:23:35.928Z,1010.1
2023-06-17T13:24:52.110Z,1010.2
2023-06-17T13:26:08.294Z,1010.1
2023-06-17T13:27:25.350Z,1010.1
2023-06-17T13:28:40.670Z,1010.1
2023-06-17T13:29:56.852Z,1010.1
2023-06-17T13:31:13.032Z,1010
2023-06-17T13:32:28.249Z,1009.9
2023-06-17T13:33:44.433Z,1009.9
2023-06-17T13:35:00.611Z,1009.9
2023-06-17T13:36:16.814Z,1009.9
2023-06-17T13:37:32.993Z,1010
2023-06-17T13:38:49.171Z,1009.9
2023-06-17T13:40:05.357Z,1010
2023-06-17T13:41:22.413Z,1010
2023-06-17T13:42:37.745Z,1010
2023-06-17T13:43:53.917Z,1009.9
2023-06-17T13:45:10.108Z,1009.9
2023-06-17T13:46:26.311Z,1009.9
2023-06-17T13:47:42.486Z,1009.8
2023-06-17T13:48:57.700Z,1009.9
2023-06-17T13:50:13.885Z,1009.9
2023-06-17T13:51:30.055Z,1009.9
2023-06-17T13:52:46.248Z,1009.9
2023-06-17T13:54:02.445Z,1009.9
2023-06-17T13:55:18.625Z,1009.9
2023-06-17T13:56:34.811Z,1009.8
2023-06-17T13:57:51.008Z,1009.8
2023-06-17T13:59:07.180Z,1009.8
2023-06-17T14:00:23.382Z,1009.9
2023-06-17T14:01:39.554Z,1009.8
2023-06-17T14:02:55.750Z,1009.8
2023-06-17T14:04:11.930Z,1009.8
2023-06-17T14:05:27.145Z,1009.8
2023-06-17T14:06:43.330Z,1009.9
2023-06-17T14:07:59.517Z,1009.9
2023-06-17T14:09:15.709Z,1009.8
2023-06-17T14:10:31.895Z,1009.8
2023-06-17T14:11:48.065Z,1009.7
2023-06-17T14:13:04.267Z,1009.8
2023-06-17T14:14:20.446Z,1009.8
2023-06-17T14:15:36.636Z,1009.8
2023-06-17T14:16:52.828Z,1009.8
2023-06-17T14:18:09.019Z,1009.8
2023-06-17T14:19:25.202Z,1009.9
2023-06-17T14:20:41.379Z,1009.9
2023-06-17T14:21:56.583Z,1009.9
2023-06-17T14:23:12.770Z,1009.9
2023-06-17T14:24:28.948Z,1009.9
2023-06-17T14:25:45.153Z,1009.9
2023-06-17T14:27:02.200Z,1009.9
2023-06-17T14:28:17.509Z,1009.9
2023-06-17T14:29:33.709Z,1009.8
2023-06-17T14:30:49.889Z,1009.8
2023-06-17T14:32:06.087Z,1009.8
2023-06-17T14:33:22.265Z,1009.8
2023-06-17T14:34:38.456Z,1009.8
2023-06-17T14:35:54.649Z,1009.8
2023-06-17T14:37:10.828Z,1009.8
2023-06-17T14:38:26.028Z,1009.8
2023-06-17T14:39:42.214Z,1009.8
2023-06-17T14:40:58.397Z,1009.7
2023-06-17T14:42:14.586Z,1009.8
2023-06-17T14:43:30.775Z,1009.8
2023-06-17T14:44:46.956Z,1009.7
2023-06-17T14:46:03.161Z,1009.8
2023-06-17T14:47:19.333Z,1009.8
2023-06-17T14:48:35.533Z,1009.9
2023-06-17T14:49:51.717Z,1009.8
2023-06-17T14:51:07.893Z,1009.8
2023-06-17T14:52:24.086Z,1009.9
2023-06-17T14:53:40.276Z,1009.9
2023-06-17T14:54:55.482Z,1010
2023-06-17T14:56:11.669Z,1009.9
2023-06-17T14:57:27.848Z,1009.9
2023-06-17T14:58:44.037Z,1009.9
2023-06-17T15:00:00.221Z,1009.8
2023-06-17T15:01:16.404Z,1009.8
2023-06-17T15:02:32.608Z,1009.9
2023-06-17T15:03:48.782Z,1009.9
2023-06-17T15:05:04.970Z,1009.8
2023-06-17T15:06:21.168Z,1009.9
2023-06-17T15:07:37.336Z,1009.8
2023-06-17T15:08:53.537Z,1009.9
2023-06-17T15:10:09.731Z,1009.9
2023-06-17T15:11:24.926Z,1009.8
2023-06-17T15:12:41.108Z,1009.8
2023-06-17T15:13:57.294Z,1009.8
2023-06-17T15:15:13.489Z,1009.8
2023-06-17T15:16:29.675Z,1009.8
2023-06-17T15:17:45.859Z,1009.9
2023-06-17T15:19:02.053Z,1009.9
2023-06-17T15:20:18.228Z,1009.8
2023-06-17T15:21:34.414Z,1009.9
2023-06-17T15:22:50.611Z,1009.8
2023-06-17T15:24:06.798Z,1009.8
2023-06-17T15:25:22.978Z,1009.8
2023-06-17T15:26:39.158Z,1009.8
2023-06-17T15:27:54.373Z,1009.8
2023-06-17T15:29:10.556Z,1009.8
2023-06-17T15:30:26.750Z,1009.8
2023-06-17T15:31:42.930Z,1009.7
2023-06-17T15:32:59.127Z,1009.7
2023-06-17T15:34:15.313Z,1009.7
2023-06-17T15:35:31.489Z,1009.7
2023-06-17T15:36:47.674Z,1009.7
2023-06-17T15:38:03.869Z,1009.7
2023-06-17T15:39:20.060Z,1009.7
2023-06-17T15:40:36.253Z,1009.8
2023-06-17T15:41:52.429Z,1009.7
2023-06-17T15:43:08.626Z,1009.8
2023-06-17T15:44:23.832Z,1009.8
2023-06-17T15:45:40.008Z,1009.8
2023-06-17T15:46:56.196Z,1009.8
2023-06-17T15:48:12.384Z,1009.8
2023-06-17T15:49:28.567Z,1009.8
2023-06-17T15:50:44.775Z,1009.7
2023-06-17T15:52:00.962Z,1009.8
2023-06-17T15:53:17.138Z,1009.8
2023-06-17T15:54:33.334Z,1009.7
2023-06-17T15:55:49.516Z,1009.8
2023-06-17T15:57:05.699Z,1009.8
2023-06-17T15:58:21.900Z,1009.8
2023-06-17T15:59:38.084Z,1009.8
2023-06-17T16:00:53.291Z,1009.8